^^
Your Local Weather - Clay, NY Station Historical Data
Daily Summary for June 23, 2017 Units:  English    Metric   Both
« Previous Day
Next Day »
Daily Weekly Monthly Yearly Custom
  High: Low: Average:
Temperature: 79.4 °F 64.3 °F 74.1 °F
Dew Point: 70.5 °F 60.0 °F 66.9 °F
Humidity: 92% 68% 79%
Wind Speed: 7.0mph 0.0mph 2.5mph
Wind Gust: 12.0mph - -
Wind- - SSW
Pressure: 29.76 in 29.47 in -
Precipitation: 0.38 in    
Historical Graphs
 
 
Tabular Data for June 23, 2017
Time Temperature Dew Point Pressure Wind Wind Speed Wind Gust Humidity Rainfall Rate (Hourly) solar
00:00 65.0 °F 60.0 °F 29.76 in Calm     84% 0.00 in 0 W/m2
00:06 64.7 °F 60.1 °F 29.76 in Calm     85% 0.00 in 0 W/m2
00:12 64.6 °F 60.0 °F 29.76 in Calm     85% 0.00 in 0 W/m2
00:18 64.4 °F 60.1 °F 29.76 in Calm     86% 0.00 in 0 W/m2
00:24 64.3 °F 60.0 °F 29.75 in Calm     86% 0.00 in 0 W/m2
00:30 64.3 °F 60.0 °F 29.75 in Calm     86% 0.00 in 0 W/m2
00:36 64.4 °F 60.1 °F 29.75 in Calm     86% 0.00 in 0 W/m2
00:42 64.5 °F 60.2 °F 29.74 in Calm     86% 0.00 in 0 W/m2
00:48 64.5 °F 60.2 °F 29.74 in Calm     86% 0.00 in 0 W/m2
00:54 64.6 °F 60.3 °F 29.74 in Calm     86% 0.00 in 0 W/m2
01:00 64.6 °F 60.6 °F 29.74 in Calm     87% 0.00 in 0 W/m2
01:06 64.6 °F 60.6 °F 29.73 in Calm     87% 0.00 in 0 W/m2
01:12 64.6 °F 60.6 °F 29.73 in Calm     87% 0.00 in 0 W/m2
01:18 64.6 °F 60.6 °F 29.73 in Calm     87% 0.00 in 0 W/m2
01:24 64.7 °F 60.7 °F 29.73 in Calm     87% 0.00 in 0 W/m2
01:30 64.7 °F 60.7 °F 29.72 in Calm     87% 0.00 in 0 W/m2
01:36 64.8 °F 61.2 °F 29.72 in Calm     88% 0.00 in 0 W/m2
01:42 64.9 °F 61.3 °F 29.71 in Calm     88% 0.00 in 0 W/m2
01:48 65.0 °F 61.0 °F 29.71 in Calm     87% 0.00 in 0 W/m2
01:54 65.1 °F 61.1 °F 29.71 in Calm     87% 0.00 in 0 W/m2
02:00 65.3 °F 61.3 °F 29.71 in Calm     87% 0.00 in 0 W/m2
02:06 65.5 °F 61.5 °F 29.71 in Calm     87% 0.00 in 0 W/m2
02:12 65.6 °F 61.6 °F 29.70 in Calm     87% 0.00 in 0 W/m2
02:18 65.6 °F 61.6 °F 29.69 in Calm     87% 0.00 in 0 W/m2
02:24 65.7 °F 61.7 °F 29.69 in Calm     87% 0.00 in 0 W/m2
02:30 65.9 °F 61.9 °F 29.69 in Calm   1.0 mph 87% 0.00 in 0 W/m2
02:36 66.0 °F 62.0 °F 29.69 in Calm   1.0 mph 87% 0.00 in 0 W/m2
02:42 66.2 °F 62.5 °F 29.69 in Calm   4.0 mph 88% 0.00 in 0 W/m2
02:48 67.2 °F 63.5 °F 29.69 in West 1.0 mph 4.0 mph 88% 0.00 in 0 W/m2
02:54 67.9 °F 63.9 °F 29.69 in Calm   1.0 mph 87% 0.00 in 0 W/m2
03:00 70.8 °F 67.1 °F 29.69 in SW 2.0 mph 2.0 mph 88% 0.00 in 0 W/m2
03:06 73.5 °F 67.3 °F 29.69 in WNW 3.0 mph 5.0 mph 81% 0.00 in 0 W/m2
03:12 75.0 °F 66.9 °F 29.68 in SSW 3.0 mph 3.0 mph 76% 0.00 in 0 W/m2
03:18 75.5 °F 66.6 °F 29.68 in SW 2.0 mph 3.0 mph 74% 0.00 in 0 W/m2
03:24 75.7 °F 66.8 °F 29.68 in SSW 3.0 mph 3.0 mph 74% 0.00 in 0 W/m2
03:30 75.9 °F 66.6 °F 29.68 in WSW 3.0 mph 3.0 mph 73% 0.00 in 0 W/m2
03:36 75.9 °F 66.2 °F 29.68 in SW 2.0 mph 8.0 mph 72% 0.00 in 0 W/m2
03:42 76.0 °F 66.3 °F 29.68 in WSW 4.0 mph 4.0 mph 72% 0.00 in 0 W/m2
03:48 75.9 °F 66.2 °F 29.68 in SSW 3.0 mph 4.0 mph 72% 0.00 in 0 W/m2
03:54 75.8 °F 66.1 °F 29.68 in South 3.0 mph 4.0 mph 72% 0.00 in 0 W/m2
04:00 75.7 °F 66.0 °F 29.68 in SW 3.0 mph 3.0 mph 72% 0.00 in 0 W/m2
04:06 75.6 °F 65.9 °F 29.68 in SSW 3.0 mph 4.0 mph 72% 0.00 in 0 W/m2
04:12 75.5 °F 66.2 °F 29.68 in WSW 2.0 mph 3.0 mph 73% 0.00 in 0 W/m2
04:18 75.4 °F 66.1 °F 29.68 in SE 2.0 mph 4.0 mph 73% 0.00 in 0 W/m2
04:24 75.4 °F 66.1 °F 29.68 in SW 2.0 mph 3.0 mph 73% 0.00 in 0 W/m2
04:30 75.5 °F 66.2 °F 29.67 in South 3.0 mph 4.0 mph 73% 0.00 in 0 W/m2
04:36 75.4 °F 66.1 °F 29.67 in SW 3.0 mph 6.0 mph 73% 0.00 in 0 W/m2
04:42 75.5 °F 65.8 °F 29.67 in WSW 3.0 mph 6.0 mph 72% 0.00 in 0 W/m2
04:48 75.6 °F 65.9 °F 29.67 in SW 4.0 mph 6.0 mph 72% 0.00 in 0 W/m2
04:54 75.5 °F 65.8 °F 29.67 in SSW 4.0 mph 4.0 mph 72% 0.00 in 0 W/m2
05:00 75.6 °F 65.9 °F 29.67 in SW 4.0 mph 4.0 mph 72% 0.00 in 0 W/m2
05:06 75.7 °F 65.6 °F 29.67 in SW 4.0 mph 4.0 mph 71% 0.00 in 0 W/m2
05:12 75.7 °F 65.6 °F 29.67 in South 3.0 mph 4.0 mph 71% 0.00 in 0 W/m2
05:18 75.6 °F 65.9 °F 29.66 in SSW 4.0 mph 5.0 mph 72% 0.00 in 0 W/m2
05:24 75.6 °F 65.9 °F 29.66 in South 4.0 mph 7.0 mph 72% 0.00 in 0 W/m2
05:30 75.5 °F 65.8 °F 29.66 in SSW 4.0 mph 5.0 mph 72% 0.00 in 0 W/m2
05:36 75.5 °F 65.8 °F 29.66 in WSW 5.0 mph 5.0 mph 72% 0.00 in 0 W/m2
05:42 75.5 °F 65.8 °F 29.66 in WSW 5.0 mph 5.0 mph 72% 0.00 in 0 W/m2
05:48 75.4 °F 65.7 °F 29.66 in WSW 4.0 mph 6.0 mph 72% 0.00 in 0 W/m2
05:54 75.3 °F 65.6 °F 29.67 in West 3.0 mph 3.0 mph 72% 0.00 in 5 W/m2
06:00 75.2 °F 65.9 °F 29.67 in WSW 3.0 mph 3.0 mph 73% 0.00 in 11 W/m2
06:06 75.1 °F 65.9 °F 29.67 in WSW 3.0 mph 3.0 mph 73% 0.00 in 7 W/m2
06:12 74.8 °F 66.0 °F 29.68 in West 2.0 mph 2.0 mph 74% 0.00 in 0 W/m2
06:18 74.6 °F 66.1 °F 29.69 in NW 1.0 mph 3.0 mph 75% 0.00 in 0 W/m2
06:24 74.3 °F 65.9 °F 29.69 in NW 1.0 mph 1.0 mph 75% 0.00 in 5 W/m2
06:30 74.1 °F 66.0 °F 29.69 in Calm   3.0 mph 76% 0.00 in 5 W/m2
06:36 73.7 °F 66.0 °F 29.69 in North 1.0 mph 3.0 mph 77% 0.00 in 7 W/m2
06:42 72.9 °F 66.0 °F 29.69 in North 2.0 mph 4.0 mph 79% 0.00 in 33 W/m2
06:48 72.3 °F 65.8 °F 29.69 in North 2.0 mph 4.0 mph 80% 0.00 in 62 W/m2
06:54 72.1 °F 65.6 °F 29.69 in North 1.0 mph 3.0 mph 80% 0.00 in 30 W/m2
07:00 71.7 °F 65.6 °F 29.68 in NE 2.0 mph 2.0 mph 81% 0.00 in 62 W/m2
07:06 71.5 °F 65.7 °F 29.68 in NE 1.0 mph 2.0 mph 82% 0.00 in 74 W/m2
07:12 71.3 °F 65.5 °F 29.68 in NE 1.0 mph 2.0 mph 82% 0.00 in 72 W/m2
07:18 71.2 °F 65.4 °F 29.67 in NE 1.0 mph 2.0 mph 82% 0.00 in 60 W/m2
07:24 71.2 °F 65.8 °F 29.67 in Calm   2.0 mph 83% 0.00 in 132 W/m2
07:30 71.4 °F 65.6 °F 29.67 in NE 1.0 mph 1.0 mph 82% 0.00 in 239 W/m2
07:36 71.9 °F 66.1 °F 29.67 in NE 1.0 mph 1.0 mph 82% 0.00 in 181 W/m2
07:42 72.3 °F 66.1 °F 29.67 in Calm     81% 0.00 in 125 W/m2
07:48 72.3 °F 66.1 °F 29.67 in NE 1.0 mph 1.0 mph 81% 0.00 in 220 W/m2
07:54 72.3 °F 66.1 °F 29.67 in NE 1.0 mph 2.0 mph 81% 0.00 in 207 W/m2
08:02 72.1 °F 65.9 °F 29.67 in East 1.0 mph 2.0 mph 81% 0.00 in 105 W/m2
08:08 72.1 °F 66.3 °F 29.66 in East 1.0 mph 2.0 mph 82% 0.00 in 135 W/m2
08:14 72.1 °F 66.3 °F 29.66 in Calm   1.0 mph 82% 0.00 in 128 W/m2
08:20 72.1 °F 66.3 °F 29.66 in Calm   2.0 mph 82% 0.00 in 118 W/m2
08:26 72.1 °F 65.9 °F 29.66 in Calm   2.0 mph 81% 0.00 in 137 W/m2
08:32 72.4 °F 66.6 °F 29.66 in East 1.0 mph 2.0 mph 82% 0.00 in 137 W/m2
08:38 72.6 °F 66.8 °F 29.66 in East 1.0 mph 2.0 mph 82% 0.00 in 190 W/m2
08:44 72.6 °F 66.8 °F 29.66 in East 1.0 mph 1.0 mph 82% 0.00 in 218 W/m2
08:50 72.6 °F 66.8 °F 29.66 in East 1.0 mph 3.0 mph 82% 0.00 in 188 W/m2
08:56 72.7 °F 66.5 °F 29.66 in SE 2.0 mph 4.0 mph 81% 0.00 in 165 W/m2
09:02 72.9 °F 67.1 °F 29.65 in SE 1.0 mph 2.0 mph 82% 0.00 in 137 W/m2
09:08 73.1 °F 67.3 °F 29.65 in SE 2.0 mph 4.0 mph 82% 0.00 in 192 W/m2
09:14 73.5 °F 67.7 °F 29.64 in SE 1.0 mph 1.0 mph 82% 0.00 in 404 W/m2
09:20 74.4 °F 67.8 °F 29.64 in ENE 1.0 mph 2.0 mph 80% 0.00 in 330 W/m2
09:24 75.1 °F 68.9 °F 29.64 in ENE 1.0 mph 2.0 mph 81% 0.00 in 714 W/m2
09:30 75.8 °F 68.1 °F 29.64 in NE 1.0 mph 2.0 mph 77% 0.00 in 353 W/m2
09:36 76.1 °F 68.4 °F 29.63 in SSE 2.0 mph 5.0 mph 77% 0.00 in 199 W/m2
09:42 76.2 °F 68.8 °F 29.63 in SSE 2.0 mph 3.0 mph 78% 0.00 in 480 W/m2
09:48 76.9 °F 69.1 °F 29.63 in SSE 1.0 mph 3.0 mph 77% 0.00 in 302 W/m2
09:54 77.0 °F 68.5 °F 29.63 in West 1.0 mph 2.0 mph 75% 0.00 in 105 W/m2
10:00 76.0 °F 67.9 °F 29.63 in ENE 2.0 mph 3.0 mph 76% 0.00 in 77 W/m2
10:06 75.1 °F 68.1 °F 29.62 in NE 2.0 mph 3.0 mph 79% 0.00 in 162 W/m2
10:12 75.0 °F 68.4 °F 29.62 in ESE 1.0 mph 1.0 mph 80% 0.00 in 332 W/m2
10:18 75.4 °F 68.4 °F 29.62 in ESE 1.0 mph 2.0 mph 79% 0.00 in 288 W/m2
10:24 76.9 °F 69.1 °F 29.61 in SSE 1.0 mph 3.0 mph 77% 0.00 in 454 W/m2
10:30 77.8 °F 69.2 °F 29.62 in South 1.0 mph 3.0 mph 75% 0.00 in 387 W/m2
10:36 78.1 °F 68.3 °F 29.61 in SSW 4.0 mph 7.0 mph 72% 0.00 in 367 W/m2
10:42 77.8 °F 68.0 °F 29.61 in South 6.0 mph 6.0 mph 72% 0.00 in 202 W/m2
10:48 77.5 °F 67.8 °F 29.61 in SW 6.0 mph 12.0 mph 72% 0.00 in 135 W/m2
10:54 77.2 °F 67.9 °F 29.61 in SSW 6.0 mph 7.0 mph 73% 0.00 in 149 W/m2
11:00 76.9 °F 67.6 °F 29.61 in SW 6.0 mph 6.0 mph 73% 0.00 in 83 W/m2
11:06 76.2 °F 68.1 °F 29.61 in SSE 5.0 mph 6.0 mph 76% 0.00 in 272 W/m2
11:12 76.1 °F 68.4 °F 29.60 in ESE 2.0 mph 3.0 mph 77% 0.00 in 287 W/m2
11:18 76.2 °F 68.1 °F 29.60 in South 2.0 mph 3.0 mph 76% 0.00 in 246 W/m2
11:24 76.5 °F 68.4 °F 29.60 in SSE 4.0 mph 5.0 mph 76% 0.00 in 297 W/m2
11:30 76.7 °F 68.2 °F 29.60 in SSW 5.0 mph 5.0 mph 75% 0.00 in 387 W/m2
11:36 78.2 °F 69.2 °F 29.59 in SSE 4.0 mph 6.0 mph 74% 0.00 in 666 W/m2
11:42 79.3 °F 69.5 °F 29.58 in SSW 4.0 mph 6.0 mph 72% 0.00 in 582 W/m2
11:48 79.4 °F 68.8 °F 29.58 in SSE 3.0 mph 6.0 mph 70% 0.00 in 348 W/m2
11:54 79.2 °F 68.1 °F 29.58 in South 4.0 mph 7.0 mph 69% 0.00 in 380 W/m2
12:00 79.1 °F 68.5 °F 29.58 in SSW 4.0 mph 6.0 mph 70% 0.00 in 388 W/m2
12:06 79.2 °F 68.1 °F 29.58 in South 5.0 mph 6.0 mph 69% 0.00 in 443 W/m2
12:12 79.3 °F 68.2 °F 29.57 in SSE 5.0 mph 8.0 mph 69% 0.00 in 295 W/m2
12:18 79.1 °F 67.6 °F 29.57 in SSW 5.0 mph 8.0 mph 68% 0.00 in 276 W/m2
12:24 78.9 °F 67.9 °F 29.57 in SSE 5.0 mph 6.0 mph 69% 0.00 in 244 W/m2
12:30 78.6 °F 68.0 °F 29.57 in South 5.0 mph 5.0 mph 70% 0.00 in 114 W/m2
12:36 76.8 °F 68.3 °F 29.57 in SSE 6.0 mph 6.0 mph 75% 0.00 in 134 W/m2
12:42 75.8 °F 69.2 °F 29.56 in South 6.0 mph 6.0 mph 80% 0.00 in 381 W/m2
12:48 76.4 °F 69.8 °F 29.56 in South 4.0 mph 6.0 mph 80% 0.00 in 292 W/m2
12:54 76.9 °F 69.5 °F 29.56 in South 4.0 mph 4.0 mph 78% 0.00 in 316 W/m2
13:00 76.8 °F 69.0 °F 29.57 in SSW 5.0 mph 7.0 mph 77% 0.00 in 91 W/m2
13:06 73.6 °F 68.1 °F 29.57 in South 7.0 mph 12.0 mph 83% 0.46 in 118 W/m2
13:12 72.2 °F 68.1 °F 29.55 in South 5.0 mph 7.0 mph 87% 0.11 in 408 W/m2
13:18 72.6 °F 68.8 °F 29.55 in South 3.0 mph 7.0 mph 88% 0.05 in 367 W/m2
13:24 73.1 °F 69.7 °F 29.54 in SSW 3.0 mph 3.0 mph 89% 0.00 in 431 W/m2
13:30 73.7 °F 70.3 °F 29.54 in SSE 2.0 mph 6.0 mph 89% 0.00 in 364 W/m2
13:36 74.4 °F 70.3 °F 29.54 in South 3.0 mph 6.0 mph 87% 0.00 in 446 W/m2
13:42 75.0 °F 70.2 °F 29.54 in SSE 4.0 mph 4.0 mph 85% 0.00 in 313 W/m2
13:48 75.3 °F 70.1 °F 29.53 in South 2.0 mph 4.0 mph 84% 0.00 in 323 W/m2
13:54 75.5 °F 70.3 °F 29.53 in SE 2.0 mph 2.0 mph 84% 0.00 in 239 W/m2
14:00 75.7 °F 70.5 °F 29.54 in SW 2.0 mph 6.0 mph 84% 0.00 in 195 W/m2
14:06 75.8 °F 69.9 °F 29.53 in SW 3.0 mph 6.0 mph 82% 0.00 in 186 W/m2
14:12 76.0 °F 69.4 °F 29.54 in SSW 4.0 mph 7.0 mph 80% 0.00 in 243 W/m2
14:18 76.3 °F 69.3 °F 29.53 in SSW 4.0 mph 7.0 mph 79% 0.00 in 422 W/m2
14:24 76.7 °F 69.7 °F 29.53 in West 3.0 mph 4.0 mph 79% 0.00 in 329 W/m2
14:30 76.9 °F 69.1 °F 29.53 in South 3.0 mph 6.0 mph 77% 0.00 in 299 W/m2
14:36 76.9 °F 68.4 °F 29.53 in SW 6.0 mph 7.0 mph 75% 0.00 in 325 W/m2
14:42 77.2 °F 68.3 °F 29.53 in SSW 5.0 mph 7.0 mph 74% 0.00 in 306 W/m2
14:48 77.2 °F 68.3 °F 29.53 in WSW 5.0 mph 7.0 mph 74% 0.00 in 227 W/m2
15:00 77.3 °F 68.4 °F 29.52 in SW 4.0 mph 5.0 mph 74% 0.00 in 262 W/m2
15:06 77.4 °F 69.2 °F 29.52 in West 3.0 mph 5.0 mph 76% 0.00 in 276 W/m2
15:12 77.5 °F 68.6 °F 29.52 in SW 3.0 mph 4.0 mph 74% 0.00 in 250 W/m2
15:18 77.7 °F 68.4 °F 29.52 in SW 4.0 mph 5.0 mph 73% 0.00 in 218 W/m2
15:24 77.7 °F 68.4 °F 29.52 in WSW 3.0 mph 6.0 mph 73% 0.00 in 202 W/m2
15:30 77.7 °F 68.7 °F 29.52 in SW 3.0 mph 5.0 mph 74% 0.00 in 200 W/m2
15:36 77.7 °F 68.0 °F 29.52 in SSW 4.0 mph 7.0 mph 72% 0.00 in 236 W/m2
15:42 77.8 °F 68.4 °F 29.52 in SSE 3.0 mph 4.0 mph 73% 0.00 in 316 W/m2
15:48 78.1 °F 68.7 °F 29.51 in SSE 3.0 mph 4.0 mph 73% 0.00 in 251 W/m2
15:56 78.2 °F 68.4 °F 29.51 in SW 4.0 mph 5.0 mph 72% 0.00 in 181 W/m2
16:02 78.0 °F 68.6 °F 29.51 in SW 4.0 mph 8.0 mph 73% 0.00 in 107 W/m2
16:08 77.8 °F 68.0 °F 29.51 in SW 4.0 mph 8.0 mph 72% 0.00 in 100 W/m2
16:14 77.7 °F 68.0 °F 29.51 in SSW 4.0 mph 9.0 mph 72% 0.00 in 128 W/m2
16:20 77.7 °F 68.0 °F 29.50 in South 4.0 mph 4.0 mph 72% 0.00 in 121 W/m2
16:26 77.7 °F 68.4 °F 29.50 in SSW 3.0 mph 4.0 mph 73% 0.00 in 179 W/m2
16:32 77.7 °F 68.4 °F 29.50 in SSE 4.0 mph 7.0 mph 73% 0.00 in 172 W/m2
16:38 77.7 °F 68.4 °F 29.50 in SSE 4.0 mph 7.0 mph 73% 0.00 in 213 W/m2
16:44 77.8 °F 68.0 °F 29.50 in SW 4.0 mph 7.0 mph 72% 0.00 in 199 W/m2
16:50 77.9 °F 68.5 °F 29.50 in SSW 4.0 mph 4.0 mph 73% 0.00 in 195 W/m2
16:56 78.0 °F 68.2 °F 29.49 in West 3.0 mph 5.0 mph 72% 0.00 in 207 W/m2
17:02 78.1 °F 68.3 °F 29.49 in SSW 3.0 mph 3.0 mph 72% 0.00 in 176 W/m2
17:08 78.1 °F 68.3 °F 29.49 in SSW 3.0 mph 6.0 mph 72% 0.00 in 146 W/m2
17:14 77.9 °F 68.1 °F 29.49 in WSW 3.0 mph 6.0 mph 72% 0.00 in 185 W/m2
17:20 77.8 °F 68.0 °F 29.49 in SW 4.0 mph 7.0 mph 72% 0.00 in 181 W/m2
17:26 77.7 °F 68.4 °F 29.48 in SW 4.0 mph 7.0 mph 73% 0.00 in 172 W/m2
17:32 77.6 °F 67.9 °F 29.48 in SW 3.0 mph 3.0 mph 72% 0.00 in 163 W/m2
17:38 77.5 °F 68.2 °F 29.47 in WSW 3.0 mph 3.0 mph 73% 0.00 in 160 W/m2
17:44 77.5 °F 68.2 °F 29.47 in SSW 3.0 mph 3.0 mph 73% 0.00 in 165 W/m2
17:50 77.6 °F 68.3 °F 29.47 in SSW 3.0 mph 4.0 mph 73% 0.00 in 165 W/m2
17:56 77.6 °F 68.3 °F 29.47 in SSW 3.0 mph 6.0 mph 73% 0.00 in 148 W/m2
18:02 77.6 °F 68.3 °F 29.47 in SSW 4.0 mph 4.0 mph 73% 0.00 in 139 W/m2
18:08 77.6 °F 68.3 °F 29.47 in South 4.0 mph 9.0 mph 73% 0.00 in 121 W/m2
18:14 77.5 °F 67.8 °F 29.47 in SW 4.0 mph 5.0 mph 72% 0.00 in 118 W/m2
18:20 77.4 °F 68.1 °F 29.47 in SW 5.0 mph 5.0 mph 73% 0.00 in 79 W/m2
18:26 77.3 °F 68.0 °F 29.47 in SSW 4.0 mph 5.0 mph 73% 0.00 in 70 W/m2
18:32 77.3 °F 68.4 °F 29.47 in WSW 3.0 mph 3.0 mph 74% 0.00 in 107 W/m2
18:38 77.2 °F 67.9 °F 29.47 in South 3.0 mph 7.0 mph 73% 0.00 in 118 W/m2
18:44 77.2 °F 67.9 °F 29.47 in SSW 4.0 mph 6.0 mph 73% 0.00 in 84 W/m2
18:50 77.2 °F 68.3 °F 29.47 in South 3.0 mph 3.0 mph 74% 0.00 in 114 W/m2
18:56 77.2 °F 68.3 °F 29.47 in SSE 2.0 mph 6.0 mph 74% 0.00 in 109 W/m2
19:02 77.2 °F 68.3 °F 29.48 in SSW 3.0 mph 3.0 mph 74% 0.00 in 95 W/m2
19:08 77.1 °F 68.2 °F 29.48 in WSW 4.0 mph 4.0 mph 74% 0.00 in 83 W/m2
19:14 77.1 °F 68.2 °F 29.48 in SSW 4.0 mph 6.0 mph 74% 0.00 in 91 W/m2
19:20 77.1 °F 68.2 °F 29.47 in South 4.0 mph 4.0 mph 74% 0.00 in 88 W/m2
19:26 77.0 °F 68.5 °F 29.47 in SW 4.0 mph 5.0 mph 75% 0.00 in 83 W/m2
19:32 77.0 °F 68.5 °F 29.47 in SW 4.0 mph 6.0 mph 75% 0.00 in 86 W/m2
19:38 76.9 °F 68.4 °F 29.47 in SW 4.0 mph 6.0 mph 75% 0.00 in 53 W/m2
19:44 76.9 °F 68.4 °F 29.47 in SW 4.0 mph 4.0 mph 75% 0.00 in 46 W/m2
19:50 76.8 °F 68.3 °F 29.47 in SSW 3.0 mph 3.0 mph 75% 0.00 in 26 W/m2
19:56 76.7 °F 68.6 °F 29.47 in SW 4.0 mph 4.0 mph 76% 0.00 in 23 W/m2
20:02 76.7 °F 68.6 °F 29.47 in SE 3.0 mph 6.0 mph 76% 0.00 in 28 W/m2
20:08 76.6 °F 68.5 °F 29.47 in SW 3.0 mph 6.0 mph 76% 0.00 in 28 W/m2
20:14 76.6 °F 68.5 °F 29.47 in SSE 3.0 mph 5.0 mph 76% 0.00 in 11 W/m2
20:20 76.5 °F 68.7 °F 29.47 in South 3.0 mph 3.0 mph 77% 0.00 in 11 W/m2
20:26 76.5 °F 68.7 °F 29.47 in SSW 3.0 mph 5.0 mph 77% 0.00 in 11 W/m2
20:32 76.4 °F 68.7 °F 29.47 in SW 3.0 mph 5.0 mph 77% 0.00 in 9 W/m2
20:38 76.4 °F 68.7 °F 29.47 in WSW 3.0 mph 6.0 mph 77% 0.00 in 0 W/m2
20:44 76.3 °F 68.6 °F 29.47 in SW 3.0 mph 4.0 mph 77% 0.00 in 0 W/m2
20:50 76.3 °F 68.9 °F 29.47 in South 4.0 mph 4.0 mph 78% 0.00 in 0 W/m2
20:56 76.2 °F 68.8 °F 29.47 in WSW 3.0 mph 4.0 mph 78% 0.00 in 0 W/m2
21:02 76.2 °F 68.8 °F 29.48 in SW 3.0 mph 5.0 mph 78% 0.00 in 0 W/m2
21:08 76.1 °F 68.7 °F 29.48 in SW 3.0 mph 5.0 mph 78% 0.00 in 0 W/m2
21:14 76.1 °F 69.1 °F 29.48 in WSW 4.0 mph 6.0 mph 79% 0.00 in 0 W/m2
21:20 75.8 °F 69.2 °F 29.48 in WSW 3.0 mph 4.0 mph 80% 0.00 in 0 W/m2
21:28 75.4 °F 69.2 °F 29.48 in SW 2.0 mph 4.0 mph 81% 0.00 in 0 W/m2
21:36 74.9 °F 69.0 °F 29.48 in SW 2.0 mph 5.0 mph 82% 0.00 in 0 W/m2
21:42 74.7 °F 69.2 °F 29.49 in SW 2.0 mph 4.0 mph 83% 0.00 in 0 W/m2
21:48 73.9 °F 69.1 °F 29.49 in SW 3.0 mph 4.0 mph 85% 0.42 in 0 W/m2
21:54 73.0 °F 68.9 °F 29.49 in WSW 2.0 mph 5.0 mph 87% 0.40 in 0 W/m2
22:00 72.5 °F 68.7 °F 29.49 in SSW 2.0 mph 2.0 mph 88% 0.10 in 0 W/m2
22:06 72.3 °F 68.9 °F 29.49 in SSW 1.0 mph 2.0 mph 89% 0.09 in 0 W/m2
22:12 72.1 °F 69.0 °F 29.49 in SSW 1.0 mph 1.0 mph 90% 0.05 in 0 W/m2
22:18 72.0 °F 68.9 °F 29.49 in Calm   1.0 mph 90% 0.00 in 0 W/m2
22:24 71.8 °F 68.7 °F 29.50 in SW 1.0 mph 3.0 mph 90% 0.00 in 0 W/m2
22:30 71.6 °F 68.8 °F 29.50 in SW 3.0 mph 3.0 mph 91% 0.32 in 0 W/m2
22:36 71.5 °F 68.7 °F 29.50 in WSW 2.0 mph 3.0 mph 91% 0.08 in 0 W/m2
22:42 71.5 °F 68.7 °F 29.50 in SSW 1.0 mph 8.0 mph 91% 0.41 in 0 W/m2
22:48 70.9 °F 68.1 °F 29.50 in West 2.0 mph 8.0 mph 91% 0.15 in 0 W/m2
22:54 70.6 °F 67.8 °F 29.51 in WNW 1.0 mph 2.0 mph 91% 0.08 in 0 W/m2
23:00 70.2 °F 67.4 °F 29.51 in SW 1.0 mph 1.0 mph 91% 0.04 in 0 W/m2
23:06 69.9 °F 67.2 °F 29.51 in SW 1.0 mph 3.0 mph 91% 0.00 in 0 W/m2
23:12 69.7 °F 67.0 °F 29.52 in SW 1.0 mph 4.0 mph 91% 0.00 in 0 W/m2
23:18 69.6 °F 66.9 °F 29.52 in WSW 1.0 mph 4.0 mph 91% 0.00 in 0 W/m2
23:24 69.6 °F 67.2 °F 29.51 in WSW 1.0 mph 2.0 mph 92% 0.00 in 0 W/m2
23:30 69.5 °F 67.1 °F 29.51 in WSW 1.0 mph 1.0 mph 92% 0.00 in 0 W/m2
23:36 69.5 °F 67.1 °F 29.51 in WSW 1.0 mph 2.0 mph 92% 0.00 in 0 W/m2
23:42 69.3 °F 66.9 °F 29.51 in WSW 1.0 mph 1.0 mph 92% 0.00 in 0 W/m2
23:48 69.3 °F 66.9 °F 29.51 in WSW 1.0 mph 2.0 mph 92% 0.00 in 0 W/m2
23:54 69.2 °F 66.8 °F 29.51 in WSW 1.0 mph 1.0 mph 92% 0.00 in 0 W/m2
Country Meadow, Clay, NY, USA
Compliments of Weather Underground - 2 mb